KGXF

Gila Bend Af Aux Airport

Gila Bend, Arizona, USA
METAR KGXF 250458Z 22009KT 10SM CLR 28/M08 A2991 RMK AO2A SLP116 T02831076
Observed Flight Rules
May-25 @ 04:58 UTC (28 minutes ago) Visual Flight Rules
Wind Visibility Clouds
220° at 9 knots 10 miles
  • Clear skies
Temperatures Readings
Current 28°C / 82°F
Dewpoint -8°C / 18°F
Humidity 9%
Altimeter 29.91" Hg
Pressure 1011.6 hPa
Elevation 262
METAR KGXF 250458Z 22009KT 10SM CLR 28/M08 A2991 RMK AO2A SLP116 T02831076
Observed Flight Rules
May-25 @ 04:58 UTC
(28 minutes ago)
VFR
Wind Visibility
220° at 9 knots 10 miles
Clouds
  • Clear skies
Temperature Dewpoint
28°C / 82°F -8°C / 18°F
Humidity Altimeter Pressure
9% 29.91" Hg 1011.6 hPa